Aviation Digital Data Service (ADDS)

Output produced by METARs form (1447 UTC 02 September 2015)
found at http://aviationweather.gov/adds/metars/
 
KRME 021406Z 0214/0312 VRB03KT P6SM OVC015 
     TEMPO 0215/0216 P6SM SCT015 BKN035 
     FM021600 27005KT P6SM SCT035